Time;durP1;ratioP1;P1;durP2;ratioP2;P2;SDS_P1;SDS_P2;PMS_P1;PMS_P2;Temp;Humidity;BMP_temperature;BMP_pressure;BME280_temperature;BME280_humidity;BME280_pressure;Samples;Min_cycle;Max_cycle;Signal;HPM_P1;HPM_P2
2022/08/27 00:02:07;;;;;;;6.35;2.40;;;;;;;16.10;85.51;101626.31;5050772;28;20045;-90
2022/08/27 00:04:33;;;;;;;4.88;1.80;;;;;;;15.96;85.11;101626.91;5051487;28;20039;-89
2022/08/27 00:06:59;;;;;;;8.35;2.30;;;;;;;15.90;86.09;101625.28;5050868;28;20021;-90
2022/08/27 00:09:25;;;;;;;5.85;2.20;;;;;;;15.73;86.61;101620.13;5052164;28;20067;-90
2022/08/27 00:11:51;;;;;;;6.80;2.17;;;;;;;15.68;87.26;101617.47;5050773;28;20049;-90
2022/08/27 00:14:16;;;;;;;7.97;2.70;;;;;;;15.55;88.10;101608.81;5051866;28;20032;-90
2022/08/27 00:16:42;;;;;;;6.10;2.50;;;;;;;15.51;88.21;101612.34;5050969;28;20384;-90
2022/08/27 00:19:08;;;;;;;3.70;2.30;;;;;;;15.51;89.13;101618.56;5050869;28;20813;-89
2022/08/27 00:21:34;;;;;;;7.82;2.30;;;;;;;15.44;89.30;101607.22;5050533;28;20037;-89
2022/08/27 00:23:59;;;;;;;6.60;2.70;;;;;;;15.36;89.88;101613.16;5050792;28;20031;-90
2022/08/27 00:26:25;;;;;;;5.93;2.67;;;;;;;15.25;90.09;101609.66;5059539;28;20447;-90
2022/08/27 00:28:50;;;;;;;6.30;2.40;;;;;;;15.18;90.34;101601.81;5050708;28;20020;-90
2022/08/27 00:31:16;;;;;;;9.33;2.60;;;;;;;15.20;90.33;101606.97;5050475;28;20076;-90
2022/08/27 00:33:42;;;;;;;7.60;2.60;;;;;;;15.08;91.00;101601.84;5049882;28;20358;-90
2022/08/27 00:36:09;;;;;;;6.07;2.28;;;;;;;15.06;91.51;101607.50;5050544;28;20052;-89
2022/08/27 00:38:35;;;;;;;5.77;2.50;;;;;;;15.04;91.85;101609.66;5070855;28;20046;-88
2022/08/27 00:41:00;;;;;;;6.27;2.50;;;;;;;14.97;92.23;101615.31;5069820;28;20313;-89
2022/08/27 00:43:44;;;;;;;5.40;2.50;;;;;;;14.82;92.98;101601.78;5070447;28;20024;-89
2022/08/27 00:46:20;;;;;;;6.77;2.40;;;;;;;14.83;93.42;101611.50;5052702;28;20037;-90
2022/08/27 00:48:47;;;;;;;9.77;2.40;;;;;;;14.78;93.65;101614.22;5070565;28;20025;-89
2022/08/27 00:51:12;;;;;;;5.45;2.90;;;;;;;14.73;94.26;101615.00;5041042;28;20443;-90
2022/08/27 00:53:38;;;;;;;5.20;2.47;;;;;;;14.67;95.07;101614.16;5030656;28;20041;-89
2022/08/27 00:56:11;;;;;;;7.43;2.55;;;;;;;14.62;94.60;101619.53;5050568;28;20399;-90
2022/08/27 00:58:42;;;;;;;6.22;2.42;;;;;;;14.55;95.00;101610.91;5051005;28;20046;-89
2022/08/27 01:01:12;;;;;;;7.28;2.75;;;;;;;14.49;95.93;101617.34;5049521;28;20098;-90
2022/08/27 01:03:39;;;;;;;5.93;2.50;;;;;;;14.43;96.16;101605.72;5050561;28;20025;-89
2022/08/27 01:06:10;;;;;;;6.50;2.60;;;;;;;14.52;95.94;101619.50;5052465;28;20279;-89
2022/08/27 01:08:38;;;;;;;7.57;2.70;;;;;;;14.47;96.16;101614.91;5053176;28;20040;-89
2022/08/27 01:11:04;;;;;;;5.63;2.65;;;;;;;14.39;96.74;101604.63;5034698;28;20086;-89
2022/08/27 01:13:31;;;;;;;4.47;2.38;;;;;;;14.41;96.37;101612.47;5051508;28;20032;-90
2022/08/27 01:15:58;;;;;;;4.75;2.88;;;;;;;14.36;96.80;101605.97;5050009;28;20116;-89
2022/08/27 01:18:29;;;;;;;8.77;3.08;;;;;;;14.30;97.17;101615.13;5050186;28;20036;-89
2022/08/27 01:21:04;;;;;;;6.57;2.90;;;;;;;14.25;97.57;101609.69;5049248;28;20032;-89
2022/08/27 01:23:47;;;;;;;6.85;2.90;;;;;;;14.25;97.94;101615.09;5064765;28;20060;-89
2022/08/27 01:26:15;;;;;;;8.90;2.97;;;;;;;14.16;98.26;101606.69;5068473;28;20029;-90
2022/08/27 01:28:41;;;;;;;6.67;3.07;;;;;;;14.18;97.81;101603.75;5070297;28;20030;-89
2022/08/27 01:31:07;;;;;;;9.43;3.00;;;;;;;14.15;98.51;101604.28;5069101;28;20274;-89
2022/08/27 01:33:33;;;;;;;7.60;3.03;;;;;;;14.12;98.19;101604.78;5069233;28;20035;-89
2022/08/27 01:35:58;;;;;;;8.00;2.63;;;;;;;14.05;98.50;101602.34;5067165;28;20021;-89
2022/08/27 01:38:26;;;;;;;5.65;3.03;;;;;;;14.02;98.87;101594.78;5029059;28;20050;-90
2022/08/27 01:40:52;;;;;;;7.93;3.38;;;;;;;13.98;99.40;101597.19;5029160;28;20068;-90
2022/08/27 01:43:18;;;;;;;7.30;3.10;;;;;;;14.01;99.36;101601.25;5045255;28;20029;-90
2022/08/27 01:45:48;;;;;;;5.67;2.90;;;;;;;13.91;99.42;101594.75;5049765;28;20136;-89
2022/08/27 01:48:15;;;;;;;6.70;3.25;;;;;;;13.97;99.89;101603.66;5050135;28;20413;-90
2022/08/27 01:50:42;;;;;;;6.55;3.08;;;;;;;13.90;99.82;101598.50;5052410;28;20029;-90
2022/08/27 01:53:14;;;;;;;9.77;3.58;;;;;;;13.81;99.85;101593.88;5049615;28;20025;-90
2022/08/27 01:55:41;;;;;;;9.75;3.00;;;;;;;13.81;100.00;101594.66;5050096;28;20021;-89
2022/08/27 01:58:07;;;;;;;6.45;3.20;;;;;;;13.78;100.00;101596.00;5049435;28;20196;-89
2022/08/27 02:00:36;;;;;;;5.57;2.90;;;;;;;13.74;100.00;101594.91;5049177;28;20032;-89
2022/08/27 02:03:02;;;;;;;6.93;2.97;;;;;;;13.71;100.00;101595.41;5049555;28;20470;-89
2022/08/27 02:05:28;;;;;;;10.07;3.10;;;;;;;13.73;100.00;101598.66;5051132;28;20032;-89
2022/08/27 02:07:54;;;;;;;4.95;2.72;;;;;;;13.65;100.00;101591.09;5053133;28;20078;-88
2022/08/27 02:10:24;;;;;;;8.88;2.88;;;;;;;13.57;100.00;101592.38;5051863;28;20029;-89
2022/08/27 02:12:49;;;;;;;6.97;2.97;;;;;;;13.54;100.00;101586.69;5052902;28;20036;-89
2022/08/27 02:15:15;;;;;;;4.77;2.60;;;;;;;13.50;100.00;101593.69;5034493;28;20642;-89
2022/08/27 02:17:41;;;;;;;6.03;3.00;;;;;;;13.42;100.00;101578.81;5052408;28;20029;-89
2022/08/27 02:20:08;;;;;;;6.67;3.13;;;;;;;13.43;100.00;101589.31;5052849;28;20367;-89
2022/08/27 02:22:34;;;;;;;8.10;3.10;;;;;;;13.40;100.00;101594.38;5056962;28;20486;-89
2022/08/27 02:24:59;;;;;;;6.18;2.85;;;;;;;13.35;100.00;101580.88;5072729;28;20051;-89
2022/08/27 02:27:25;;;;;;;5.13;3.10;;;;;;;13.30;100.00;101579.78;5073354;28;20035;-89
2022/08/27 02:29:51;;;;;;;4.55;2.85;;;;;;;13.11;100.00;101555.16;5073650;28;20115;-89
2022/08/27 02:32:16;;;;;;;9.97;3.47;;;;;;;13.14;100.00;101570.78;5073300;28;20634;-89
2022/08/27 02:34:41;;;;;;;7.88;3.22;;;;;;;13.15;100.00;101572.38;5073911;28;20462;-89
2022/08/27 02:37:07;;;;;;;6.63;3.50;;;;;;;13.14;100.00;101570.78;5073710;28;20426;-90
2022/08/27 02:39:33;;;;;;;6.47;3.37;;;;;;;13.14;100.00;101576.16;5072918;28;20532;-89
2022/08/27 02:41:59;;;;;;;5.95;3.45;;;;;;;13.05;100.00;101558.06;5068954;28;20550;-89
2022/08/27 02:44:24;;;;;;;7.30;3.27;;;;;;;13.05;100.00;101571.50;5073012;28;20054;-89
2022/08/27 02:46:49;;;;;;;9.47;3.40;;;;;;;13.05;100.00;101566.13;5070071;28;20060;-89
2022/08/27 02:49:14;;;;;;;11.00;3.60;;;;;;;13.05;100.00;101575.00;5073019;28;20060;-88
2022/08/27 02:51:40;;;;;;;7.13;3.50;;;;;;;12.98;100.00;101566.31;5072177;28;20115;-89
2022/08/27 02:54:06;;;;;;;10.53;3.67;;;;;;;12.91;100.00;101565.72;5072716;28;20275;-89
2022/08/27 02:56:31;;;;;;;5.10;3.40;;;;;;;13.01;100.00;101577.41;5072541;28;20025;-88
2022/08/27 02:58:58;;;;;;;6.72;5.00;;;;;;;12.99;100.00;101579.53;5065122;28;20524;-89
2022/08/27 03:01:23;;;;;;;6.50;3.67;;;;;;;12.97;100.00;101583.53;5052151;28;20025;-89
2022/08/27 03:03:48;;;;;;;6.27;3.27;;;;;;;12.76;100.00;101561.84;5052317;28;20298;-89
2022/08/27 03:06:14;;;;;;;7.80;3.37;;;;;;;12.95;100.00;101580.31;5052757;28;20033;-88
2022/08/27 03:08:39;;;;;;;7.03;3.70;;;;;;;12.92;100.00;101578.13;5052377;28;20449;-89
2022/08/27 03:11:06;;;;;;;6.03;3.50;;;;;;;12.99;100.00;101576.84;5050457;28;20029;-89
2022/08/27 03:13:36;;;;;;;8.10;3.47;;;;;;;12.96;100.00;101571.97;5034461;28;20044;-89
2022/08/27 03:16:02;;;;;;;6.10;3.20;;;;;;;13.03;100.00;101579.81;5055981;28;20024;-89
2022/08/27 03:18:28;;;;;;;6.75;3.95;;;;;;;13.03;100.00;101571.75;5053700;28;20404;-88
2022/08/27 03:20:55;;;;;;;6.00;3.33;;;;;;;13.07;100.00;101586.31;5071302;28;20127;-89
2022/08/27 03:23:25;;;;;;;8.15;3.42;;;;;;;13.07;100.00;101575.56;5072349;28;20024;-89
2022/08/27 03:25:57;;;;;;;11.48;3.65;;;;;;;13.09;100.00;101584.19;5071663;28;20056;-88
2022/08/27 03:28:28;;;;;;;9.70;3.90;;;;;;;13.16;100.00;101587.47;5072349;28;20016;-89
2022/08/27 03:30:59;;;;;;;8.88;3.83;;;;;;;13.21;100.00;101580.50;5071291;28;20032;-89
2022/08/27 03:33:25;;;;;;;8.18;4.00;;;;;;;13.17;100.00;101572.94;5061968;28;20029;-89
2022/08/27 03:35:51;;;;;;;8.27;3.63;;;;;;;13.30;100.00;101582.47;5051712;28;20507;-88
2022/08/27 03:38:16;;;;;;;7.20;3.53;;;;;;;13.39;100.00;101582.00;5051729;28;20275;-89
2022/08/27 03:40:42;;;;;;;6.60;3.67;;;;;;;13.40;100.00;101589.00;5051356;28;20040;-89
2022/08/27 03:43:12;;;;;;;10.00;4.30;;;;;;;13.47;100.00;101589.59;5052897;28;20024;-89
2022/08/27 03:45:37;;;;;;;7.97;3.63;;;;;;;13.50;100.00;101583.72;5052303;28;20650;-88
2022/08/27 03:48:05;;;;;;;9.05;4.35;;;;;;;13.55;100.00;101594.53;5071500;28;20024;-88
2022/08/27 03:50:31;;;;;;;6.50;4.15;;;;;;;13.51;100.00;101587.22;5040394;28;20589;-89
2022/08/27 03:52:57;;;;;;;13.25;4.45;;;;;;;13.54;100.00;101584.00;5031330;28;20025;-89
2022/08/27 03:55:23;;;;;;;6.30;4.20;;;;;;;13.47;100.00;101578.84;5031552;28;20026;-89
2022/08/27 03:57:48;;;;;;;7.72;4.20;;;;;;;13.41;100.00;101579.91;5037445;28;20032;-88
2022/08/27 04:00:14;;;;;;;6.00;4.00;;;;;;;13.37;100.00;101590.31;5070763;28;20025;-89
2022/08/27 04:02:41;;;;;;;8.18;3.95;;;;;;;13.35;100.00;101587.06;5071558;28;20020;-88
2022/08/27 04:05:09;;;;;;;8.68;4.78;;;;;;;13.23;100.00;101581.06;5071068;28;20017;-88
2022/08/27 04:07:35;;;;;;;6.22;3.90;;;;;;;13.13;100.00;101568.34;5051125;28;20017;-88
2022/08/27 04:10:00;;;;;;;10.17;4.10;;;;;;;13.09;100.00;101577.97;5064641;28;20167;-88
2022/08/27 04:12:26;;;;;;;10.03;4.63;;;;;;;13.11;100.00;101581.22;5051275;28;20033;-88
2022/08/27 04:14:52;;;;;;;9.63;4.17;;;;;;;13.06;100.00;101589.25;5051072;28;20276;-89
2022/08/27 04:17:17;;;;;;;7.37;4.17;;;;;;;12.99;100.00;101576.00;5050749;28;20095;-89
2022/08/27 04:19:42;;;;;;;4.72;4.15;;;;;;;12.97;100.00;101570.91;5050923;28;20116;-88
2022/08/27 04:22:08;;;;;;;7.47;4.27;;;;;;;12.98;100.00;101579.75;5051048;28;20025;-89
2022/08/27 04:24:36;;;;;;;7.77;4.10;;;;;;;12.92;100.00;101573.53;5051484;28;20045;-89
2022/08/27 04:27:02;;;;;;;8.35;4.30;;;;;;;12.90;100.00;101582.94;5042539;28;20028;-89
2022/08/27 04:29:28;;;;;;;7.40;4.00;;;;;;;12.86;100.00;101571.88;5071064;28;20048;-88
2022/08/27 04:31:54;;;;;;;12.25;4.78;;;;;;;12.74;100.00;101572.03;5070132;28;20068;-89
2022/08/27 04:34:20;;;;;;;6.13;4.07;;;;;;;12.67;100.00;101574.09;5067470;28;20044;-88
2022/08/27 04:36:46;;;;;;;7.53;3.97;;;;;;;12.61;100.00;101575.94;5050489;28;20500;-88
2022/08/27 04:39:12;;;;;;;8.85;4.60;;;;;;;12.62;100.00;101588.31;5049476;28;20408;-88
2022/08/27 04:41:37;;;;;;;9.07;4.50;;;;;;;12.56;100.00;101586.63;5049537;28;20025;-88
2022/08/27 04:44:07;;;;;;;9.32;4.25;;;;;;;12.55;100.00;101585.81;5050439;28;20790;-89
2022/08/27 04:46:36;;;;;;;7.40;4.70;;;;;;;12.59;100.00;101604.16;5050191;28;20086;-88
2022/08/27 04:49:06;;;;;;;8.05;4.60;;;;;;;12.55;100.00;101593.91;5050441;28;20033;-87
2022/08/27 04:51:32;;;;;;;7.53;4.80;;;;;;;12.52;100.00;101590.88;5050044;28;20117;-88
2022/08/27 04:53:58;;;;;;;12.25;4.82;;;;;;;12.52;100.00;101591.72;5050522;28;20391;-88
2022/08/27 04:56:23;;;;;;;7.25;4.47;;;;;;;12.46;100.00;101590.00;5050612;28;20025;-88
2022/08/27 04:58:50;;;;;;;7.47;4.90;;;;;;;12.50;100.00;101596.50;5058125;28;20021;-88
2022/08/27 05:01:23;;;;;;;7.47;5.03;;;;;;;12.51;100.00;101592.75;5059943;28;20036;-89
2022/08/27 05:03:49;;;;;;;10.07;4.80;;;;;;;12.56;100.00;101597.38;5069642;28;20388;-88
2022/08/27 05:06:14;;;;;;;13.30;5.43;;;;;;;12.66;100.00;101596.69;5065558;28;20033;-88
2022/08/27 05:08:40;;;;;;;6.40;5.13;;;;;;;12.73;100.00;101586.53;5070485;28;20079;-88
2022/08/27 05:11:08;;;;;;;11.63;4.60;;;;;;;12.87;100.00;101598.50;5069466;28;20025;-88
2022/08/27 05:13:34;;;;;;;15.73;5.90;;;;;;;12.92;100.00;101589.69;5070321;28;20048;-88
2022/08/27 05:16:03;;;;;;;9.07;5.30;;;;;;;13.12;100.00;101602.50;5057850;28;20098;-88
2022/08/27 05:18:29;;;;;;;7.95;5.70;;;;;;;13.23;100.00;101603.41;5050059;28;20124;-88
2022/08/27 05:20:55;;;;;;;7.15;5.25;;;;;;;13.36;100.00;101599.47;5048965;28;20036;-89
2022/08/27 05:23:21;;;;;;;9.43;5.50;;;;;;;13.53;100.00;101603.91;5050250;28;20067;-88
2022/08/27 05:25:49;;;;;;;10.90;5.77;;;;;;;13.65;100.00;101599.16;5032246;28;20021;-88
2022/08/27 05:28:16;;;;;;;10.13;5.65;;;;;;;13.90;100.00;101608.44;5049940;28;20035;-88
2022/08/27 05:30:45;;;;;;;10.20;5.90;;;;;;;14.06;100.00;101618.22;5049568;28;20025;-88
2022/08/27 05:33:13;;;;;;;10.48;5.82;;;;;;;14.18;100.00;101603.75;5047578;28;20499;-88
2022/08/27 05:35:44;;;;;;;10.25;5.88;;;;;;;14.38;100.00;101611.94;5048964;28;20033;-88
2022/08/27 05:38:10;;;;;;;13.25;5.85;;;;;;;14.50;100.00;101609.00;5031655;28;20020;-88
2022/08/27 05:40:36;;;;;;;12.93;5.70;;;;;;;14.71;100.00;101613.66;5051086;28;20090;-87
2022/08/27 05:43:02;;;;;;;9.82;6.00;;;;;;;14.88;100.00;101622.31;5053641;28;20028;-89
2022/08/27 05:45:28;;;;;;;11.00;5.60;;;;;;;15.02;100.00;101617.22;5053720;28;20029;-89
2022/08/27 05:47:53;;;;;;;13.73;6.18;;;;;;;15.02;100.00;101606.44;5053717;28;20029;-88
2022/08/27 05:50:18;;;;;;;12.50;5.50;;;;;;;15.24;99.33;101614.25;5053472;28;20094;-88
2022/08/27 05:52:44;;;;;;;14.60;5.77;;;;;;;15.36;99.21;101608.59;5054089;28;20112;-88
2022/08/27 05:55:09;;;;;;;13.67;5.67;;;;;;;15.51;98.23;101605.06;5053395;28;20052;-88
2022/08/27 05:57:34;;;;;;;14.77;6.23;;;;;;;15.60;98.56;101598.03;5053682;28;20037;-89
2022/08/27 06:02:44;;;;;;;11.47;6.00;;;;;;;15.86;96.99;101611.50;5057135;28;20086;-89
2022/08/27 06:05:10;;;;;;;12.25;6.22;;;;;;;15.93;96.62;101615.81;5056193;28;20060;-88
2022/08/27 06:07:35;;;;;;;12.63;6.38;;;;;;;15.96;96.73;101616.09;5053376;28;20045;-87
2022/08/27 06:10:01;;;;;;;10.50;5.37;;;;;;;16.11;95.52;101633.34;5052640;28;20067;-89
2022/08/27 06:12:26;;;;;;;13.60;5.53;;;;;;;16.04;96.42;101620.91;5053604;28;20052;-87
2022/08/27 06:14:52;;;;;;;10.83;5.50;;;;;;;16.14;95.88;101630.09;5052841;28;20283;-87
2022/08/27 06:17:17;;;;;;;11.13;5.40;;;;;;;16.12;94.45;101622.22;5054739;28;20528;-88
2022/08/27 06:19:44;;;;;;;10.77;5.57;;;;;;;16.16;95.73;101615.19;5073084;28;20474;-89
2022/08/27 06:22:10;;;;;;;10.63;5.57;;;;;;;16.26;95.15;101627.03;5068449;28;20736;-90
2022/08/27 06:24:37;;;;;;;11.25;5.57;;;;;;;16.26;95.25;101617.03;5055200;28;20029;-89
2022/08/27 06:27:03;;;;;;;8.77;4.93;;;;;;;16.35;94.89;101636.22;5050499;28;20028;-88
2022/08/27 06:29:28;;;;;;;13.70;5.00;;;;;;;16.39;94.56;101631.88;5053045;28;20609;-87
2022/08/27 06:31:55;;;;;;;11.73;5.30;;;;;;;16.32;94.40;101609.72;5051951;28;20111;-87
2022/08/27 06:34:20;;;;;;;10.55;5.20;;;;;;;16.41;95.03;101629.69;5052756;28;20377;-87
2022/08/27 06:36:46;;;;;;;11.03;5.13;;;;;;;16.42;94.18;101620.50;5052764;28;20128;-88
2022/08/27 06:39:14;;;;;;;12.38;5.05;;;;;;;16.48;93.86;101626.69;5053041;28;20021;-88
2022/08/27 06:41:40;;;;;;;11.63;4.60;;;;;;;16.44;93.66;101639.94;5069409;28;20039;-88
2022/08/27 06:44:06;;;;;;;8.73;4.40;;;;;;;16.38;93.09;101624.84;5062892;28;20033;-88
2022/08/27 06:46:31;;;;;;;7.80;4.20;;;;;;;16.54;92.77;101635.59;5050868;28;20394;-88
2022/08/27 06:48:59;;;;;;;9.13;4.70;;;;;;;16.58;92.75;101642.84;5047519;28;20786;-88
2022/08/27 06:51:27;;;;;;;9.53;4.67;;;;;;;16.61;92.08;101641.50;5055044;28;20025;-88
2022/08/27 06:53:54;;;;;;;9.47;4.60;;;;;;;16.61;91.82;101633.38;5052869;28;20296;-88
2022/08/27 06:56:20;;;;;;;7.78;4.18;;;;;;;16.64;91.92;101632.81;5053370;28;20029;-89
2022/08/27 06:58:47;;;;;;;9.02;4.38;;;;;;;16.73;91.75;101630.31;5050806;28;20057;-88
2022/08/27 07:01:19;;;;;;;9.73;4.18;;;;;;;16.76;91.35;101630.59;5052015;28;20111;-88
2022/08/27 07:03:48;;;;;;;12.77;4.60;;;;;;;16.92;90.85;101638.59;5047561;28;20029;-89
2022/08/27 07:06:15;;;;;;;7.63;4.38;;;;;;;16.85;90.24;101617.28;5031005;28;20075;-88
2022/08/27 07:08:41;;;;;;;8.48;4.13;;;;;;;17.07;90.34;101640.44;5051307;28;20016;-89
2022/08/27 07:11:12;;;;;;;9.57;4.13;;;;;;;17.03;89.19;101623.94;5050984;28;20025;-88
2022/08/27 07:13:38;;;;;;;11.50;3.80;;;;;;;17.21;88.74;101643.28;5052037;28;20056;-87
2022/08/27 07:16:09;;;;;;;7.37;3.50;;;;;;;17.23;88.38;101644.66;5053733;28;20037;-88
2022/08/27 07:18:35;;;;;;;8.88;3.65;;;;;;;17.34;88.04;101636.44;5071246;28;20155;-87
2022/08/27 07:21:02;;;;;;;7.53;4.10;;;;;;;17.44;87.43;101649.06;5070344;28;20032;-87
2022/08/27 07:23:29;;;;;;;9.05;3.40;;;;;;;17.51;86.45;101650.34;5070647;28;20929;-87
2022/08/27 07:25:54;;;;;;;10.32;4.75;;;;;;;17.55;85.58;101645.16;5069623;28;20029;-87
2022/08/27 07:28:20;;;;;;;8.30;4.33;;;;;;;17.57;85.81;101642.97;5052086;28;20048;-87
2022/08/27 07:30:45;;;;;;;10.33;4.10;;;;;;;17.68;85.18;101655.38;5052113;28;20029;-87
2022/08/27 07:33:10;;;;;;;10.93;5.10;;;;;;;17.77;84.46;101646.59;5071513;28;20515;-88
2022/08/27 07:35:36;;;;;;;14.80;4.83;;;;;;;17.86;84.04;101642.97;5071800;28;20627;-88
2022/08/27 07:38:01;;;;;;;7.73;4.23;;;;;;;18.00;82.00;101645.84;5071760;28;20077;-88
2022/08/27 07:40:26;;;;;;;8.57;4.27;;;;;;;18.08;81.08;101651.72;5069361;28;20029;-87
2022/08/27 07:45:44;;;;;;;8.45;3.97;;;;;;;18.36;79.97;101647.31;5071871;28;20581;-87
2022/08/27 07:48:10;;;;;;;8.63;3.80;;;;;;;18.36;78.56;101650.00;5069372;28;20020;-86
2022/08/27 07:50:35;;;;;;;11.33;3.80;;;;;;;18.38;77.77;101650.53;5050174;28;20055;-86
2022/08/27 07:53:01;;;;;;;7.63;3.60;;;;;;;18.25;76.91;101645.81;5071581;28;20399;-86
2022/08/27 07:55:26;;;;;;;7.10;3.87;;;;;;;18.50;78.46;101663.69;5071772;28;20464;-87
2022/08/27 07:57:51;;;;;;;7.67;4.03;;;;;;;18.87;77.75;101662.09;5065203;28;20031;-87
2022/08/27 08:00:17;;;;;;;9.17;3.90;;;;;;;19.16;76.58;101655.72;5050869;28;20025;-88
2022/08/27 08:02:43;;;;;;;10.38;4.20;;;;;;;19.55;74.99;101672.75;5032672;28;20021;-89
2022/08/27 08:05:11;;;;;;;8.17;3.57;;;;;;;19.76;72.87;101670.47;5051973;28;20092;-92
2022/08/27 08:07:37;;;;;;;13.10;4.55;;;;;;;19.71;72.21;101667.03;5062895;28;20055;-90
2022/08/27 08:10:07;;;;;;;6.95;4.25;;;;;;;19.66;70.96;101670.66;5050495;28;20048;-90
2022/08/27 08:12:37;;;;;;;6.57;3.80;;;;;;;19.70;72.02;101666.25;5069173;28;20032;-89
2022/08/27 08:15:05;;;;;;;9.45;4.20;;;;;;;19.44;71.62;101661.25;5059808;28;20400;-89
2022/08/27 08:17:33;;;;;;;10.88;3.83;;;;;;;19.20;70.88;101661.38;5052875;28;20028;-89
2022/08/27 08:19:58;;;;;;;8.23;4.50;;;;;;;19.19;72.70;101646.97;5051918;28;20021;-89
2022/08/27 08:22:24;;;;;;;7.10;4.10;;;;;;;19.18;70.19;101653.50;5051769;28;20040;-90
2022/08/27 08:24:49;;;;;;;5.73;4.00;;;;;;;19.04;68.63;101656.19;5052799;28;20031;-92
2022/08/27 08:27:14;;;;;;;10.25;3.97;;;;;;;19.05;70.22;101665.13;5047469;28;20542;-92
2022/08/27 08:29:39;;;;;;;7.17;3.20;;;;;;;19.13;69.82;101667.19;5071774;28;20028;-92
2022/08/27 08:32:06;;;;;;;8.07;3.27;;;;;;;19.30;68.70;101672.06;5056309;28;20116;-91
2022/08/27 08:34:32;;;;;;;5.88;2.72;;;;;;;19.43;68.53;101664.28;5053726;28;20029;-91
2022/08/27 08:36:57;;;;;;;6.37;3.00;;;;;;;19.61;66.84;101681.63;5067482;28;20021;-91
2022/08/27 08:39:23;;;;;;;11.93;3.60;;;;;;;19.89;67.34;101676.28;5055602;28;20026;-91
2022/08/27 08:41:55;;;;;;;9.75;3.30;;;;;;;20.21;65.95;101660.97;5043670;28;20112;-92
2022/08/27 08:44:32;;;;;;;6.90;3.17;;;;;;;20.67;66.36;101662.69;5055310;28;20040;-92
2022/08/27 08:47:21;;;;;;;6.65;2.90;;;;;;;21.05;66.07;101667.06;5055188;28;20079;-92
2022/08/27 08:50:05;;;;;;;7.05;2.67;;;;;;;21.19;60.35;101661.53;5053269;28;20858;-93
2022/08/27 08:52:33;;;;;;;6.03;2.60;;;;;;;20.99;60.07;101660.94;5052021;28;20124;-91
2022/08/27 08:55:26;;;;;;;5.07;2.40;;;;;;;20.65;58.89;101666.84;5036492;28;20091;-92
2022/08/27 08:57:58;;;;;;;7.43;2.20;;;;;;;20.22;61.64;101662.56;5041311;28;20303;-92
2022/08/27 09:00:24;;;;;;;3.67;1.98;;;;;;;20.07;60.97;101659.06;5053922;28;20082;-92
2022/08/27 09:02:53;;;;;;;5.50;2.17;;;;;;;20.16;61.40;101661.06;5053343;28;20037;-91
2022/08/27 09:05:20;;;;;;;5.90;2.28;;;;;;;20.42;59.92;101667.59;5040776;28;20043;-91
2022/08/27 09:07:48;;;;;;;5.45;2.20;;;;;;;20.78;59.28;101674.19;5065291;28;20461;-91
2022/08/27 09:10:32;;;;;;;5.35;2.30;;;;;;;21.21;57.56;101672.91;5061166;28;20055;-91
2022/08/27 09:13:02;;;;;;;4.65;2.00;;;;;;;21.63;57.04;101668.09;5054565;28;20490;-93
2022/08/27 09:15:32;;;;;;;4.32;1.92;;;;;;;21.84;54.68;101664.81;5042454;28;20400;-92
2022/08/27 09:18:09;;;;;;;6.15;2.08;;;;;;;22.14;55.55;101678.72;5062331;28;20013;-87
2022/08/27 09:20:35;;;;;;;4.78;2.13;;;;;;;22.27;54.74;101685.19;5051260;28;20086;-88
2022/08/27 09:23:32;;;;;;;3.90;2.22;;;;;;;22.24;56.31;101683.91;5069684;28;20021;-92
2022/08/27 09:25:58;;;;;;;5.23;1.70;;;;;;;22.15;54.05;101676.81;5052854;28;20111;-91
2022/08/27 09:31:19;;;;;;;5.80;1.77;;;;;;;22.23;53.96;101679.56;5060388;28;20043;-87
2022/08/27 09:33:45;;;;;;;6.30;2.10;;;;;;;21.96;52.46;101677.03;5069950;28;20797;-87
2022/08/27 09:36:14;;;;;;;6.20;1.98;;;;;;;21.83;52.97;101681.47;5069529;28;20162;-88
2022/08/27 09:38:51;;;;;;;5.93;2.03;;;;;;;21.90;54.75;101681.84;5069937;28;20103;-87
2022/08/27 09:41:24;;;;;;;5.28;1.95;;;;;;;22.11;53.58;101675.81;5051020;28;20036;-87
2022/08/27 09:43:57;;;;;;;5.03;1.90;;;;;;;22.19;54.46;101673.13;5069838;28;20036;-88
2022/08/27 09:46:24;;;;;;;3.63;1.70;;;;;;;22.09;52.70;101668.75;5067030;28;20017;-87
2022/08/27 09:48:50;;;;;;;7.05;2.30;;;;;;;21.77;54.17;101678.09;5069587;28;20499;-87
2022/08/27 09:51:19;;;;;;;4.18;2.13;;;;;;;21.39;54.50;101670.31;5069226;28;20027;-87
2022/08/27 09:53:56;;;;;;;6.57;2.00;;;;;;;21.37;56.14;101673.34;5069629;28;20109;-87
2022/08/27 09:56:29;;;;;;;10.80;2.20;;;;;;;21.39;55.19;101673.03;5069946;28;20027;-87
2022/08/27 09:59:01;;;;;;;4.90;2.17;;;;;;;21.37;54.96;101654.28;5069147;28;20282;-88
2022/08/27 10:01:31;;;;;;;5.55;1.73;;;;;;;21.47;53.48;101683.19;5051385;28;20029;-88
2022/08/27 10:04:09;;;;;;;5.18;1.60;;;;;;;21.44;52.09;101675.63;5049209;28;20108;-87
2022/08/27 10:06:36;;;;;;;2.78;1.70;;;;;;;21.49;52.62;101659.94;5049737;28;20044;-87
2022/08/27 10:09:16;;;;;;;3.67;1.95;;;;;;;21.90;51.59;101679.94;5049386;28;20116;-88
2022/08/27 10:12:21;;;;;;;5.60;1.75;;;;;;;22.12;50.46;101671.97;5048772;28;20041;-87
2022/08/27 10:14:51;;;;;;;6.95;2.00;;;;;;;22.22;49.33;101672.50;5048853;28;20226;-88
2022/08/27 10:17:31;;;;;;;10.48;1.83;;;;;;;22.08;50.75;101667.16;5049571;28;20495;-88
2022/08/27 10:19:57;;;;;;;3.60;1.85;;;;;;;22.06;51.28;101674.06;5048537;28;20083;-88
2022/08/27 10:22:40;;;;;;;5.00;1.70;;;;;;;22.06;52.06;101665.88;5049252;28;20032;-87
2022/08/27 10:25:53;;;;;;;3.03;1.52;;;;;;;22.08;50.45;101661.69;5031407;28;20082;-87
2022/08/27 10:29:10;;;;;;;4.60;1.87;;;;;;;22.03;50.46;101661.03;4990651;28;20045;-88
2022/08/27 10:31:59;;;;;;;4.27;1.80;;;;;;;22.33;50.50;101670.28;4990492;28;20639;-88
2022/08/27 10:34:42;;;;;;;5.15;1.90;;;;;;;22.52;50.00;101670.00;5033188;28;20037;-88
2022/08/27 10:37:27;;;;;;;8.02;1.90;;;;;;;22.49;50.36;101670.63;5032751;28;20030;-87
2022/08/27 10:40:11;;;;;;;4.32;1.52;;;;;;;22.65;49.49;101657.34;5032125;28;20041;-87
2022/08/27 10:43:04;;;;;;;6.78;1.80;;;;;;;22.95;50.38;101667.63;5035590;28;20048;-87
2022/08/27 10:45:53;;;;;;;3.75;1.52;;;;;;;23.13;49.20;101661.03;5052867;28;20032;-87
2022/08/27 10:48:24;;;;;;;5.88;1.92;;;;;;;23.21;48.09;101666.81;5052655;28;20029;-87
2022/08/27 10:51:11;;;;;;;5.45;1.60;;;;;;;23.55;48.62;101656.94;5051910;28;20035;-87
2022/08/27 10:53:45;;;;;;;5.82;1.75;;;;;;;23.74;46.93;101657.34;5052647;28;20021;-88
2022/08/27 10:56:33;;;;;;;3.70;1.40;;;;;;;23.74;46.77;101664.75;5052319;28;20040;-87
2022/08/27 10:59:40;;;;;;;3.27;1.60;;;;;;;23.57;46.96;101657.41;5046397;28;20350;-88
2022/08/27 11:02:22;;;;;;;4.38;1.65;;;;;;;23.52;46.59;101655.66;4989936;28;20042;-88
2022/08/27 11:04:52;;;;;;;6.25;1.45;;;;;;;23.69;45.28;101652.06;5028063;28;20606;-87
2022/08/27 11:07:25;;;;;;;3.40;1.20;;;;;;;23.74;46.78;101651.84;5032665;28;20030;-88
2022/08/27 11:10:14;;;;;;;4.20;1.40;;;;;;;23.54;46.76;101652.59;5031631;28;20033;-89
2022/08/27 11:12:43;;;;;;;2.33;1.13;;;;;;;23.27;46.33;101654.59;5032625;28;20025;-88
2022/08/27 11:15:21;;;;;;;3.55;1.52;;;;;;;23.26;46.87;101653.81;5030697;28;20025;-87
2022/08/27 11:18:05;;;;;;;3.67;1.52;;;;;;;23.32;46.19;101667.28;5043133;28;20059;-87
2022/08/27 11:20:33;;;;;;;4.53;1.70;;;;;;;23.29;46.39;101655.84;5071587;28;20032;-88
2022/08/27 11:23:06;;;;;;;3.03;1.20;;;;;;;23.43;46.75;101649.41;5054934;28;20063;-87
2022/08/27 11:25:50;;;;;;;4.77;1.60;;;;;;;23.61;46.32;101657.56;5072317;28;20274;-87
2022/08/27 11:28:20;;;;;;;3.42;1.50;;;;;;;23.61;46.36;101636.47;5071828;28;20483;-87
2022/08/27 11:31:08;;;;;;;5.65;1.90;;;;;;;23.93;47.71;101653.38;5052670;28;20070;-87
2022/08/27 11:33:49;;;;;;;4.10;1.60;;;;;;;24.01;46.20;101654.53;5067996;28;20039;-88
2022/08/27 11:36:46;;;;;;;3.63;1.48;;;;;;;23.85;45.86;101656.97;5059622;28;20107;-88
2022/08/27 11:39:26;;;;;;;2.83;1.50;;;;;;;24.00;45.58;101648.25;5070205;28;20111;-88
2022/08/27 11:42:00;;;;;;;3.60;1.77;;;;;;;24.06;44.84;101656.28;5071033;28;20024;-87